< Typhoon 196630 1966 Season Typhoon 196632 >
Typhoon 196631 (MARIE)
General InformationTrack Information on Google Maps || Disaster Info.ResourceGoogle EarthGE AnimationAtom FeedGeoJSON
Detalied Best Track (Time Zone = UTC)
Year Month Day Hour Lat. Long. Pressure (hPa) Wind (kt) Class Image Chart
1966 10 29 18 14.3 167.9 1000 0 2 -- Chart
1966 10 30 00 14.7 167.1 998 0 9 -- Chart
1966 10 30 06 15.1 165.7 992 0 9 -- Chart
1966 10 30 12 15.4 164.4 990 0 9 -- Chart
1966 10 30 18 15.6 162.7 986 0 9 -- Chart
1966 10 31 00 16.2 161.1 982 0 9 -- Chart
1966 10 31 06 16.8 159.8 980 0 9 -- Chart
1966 10 31 12 17.6 158.8 978 0 9 -- Chart
1966 10 31 18 18.6 157.8 976 0 9 -- Chart
1966 11 1 00 19.7 156.6 972 0 9 -- Chart
1966 11 1 06 20.5 155.2 968 0 9 -- Chart
1966 11 1 12 21.2 153.5 966 0 9 -- Chart
1966 11 1 18 21.7 152.0 960 0 9 -- Chart
1966 11 2 00 22.6 151.0 954 0 9 -- Chart
1966 11 2 06 23.5 150.8 949 0 9 -- Chart
1966 11 2 12 24.4 150.2 949 0 9 -- Chart
1966 11 2 18 25.7 151.8 949 0 9 -- Chart
1966 11 3 00 26.5 153.0 948 0 9 -- Chart
1966 11 3 06 27.7 155.8 948 0 9 -- Chart
1966 11 3 12 29.1 159.0 948 0 9 -- Chart
1966 11 3 18 31.2 162.7 950 0 9 -- Chart
1966 11 4 00 34.0 167.0 960 0 9 -- Chart
1966 11 4 06 36.7 171.5 970 0 6 -- Chart
1966 11 4 12 40.3 176.0 980 0 6 -- Chart
1966 11 4 18 44.0 180.0 986 0 6 -- Chart
1966 11 5 00 47.1 185.0 986 0 6 -- Chart
Japan Meteorological Agency Best Track Data | Correction Date : 1989-06-01
< Typhoon 196630 1966 Season Typhoon 196632 >

Help